Time;durP1;ratioP1;P1;durP2;ratioP2;P2;SDS_P1;SDS_P2;PMS_P1;PMS_P2;Temp;Humidity;BMP_temperature;BMP_pressure;BME280_temperature;BME280_humidity;BME280_pressure;Samples;Min_cycle;Max_cycle;Signal;HPM_P1;HPM_P2
2022/08/05 00:01:16;;;;;;;;;;;;;;;15.65;53.52;97550.56;6223987;28;19926;-65
2022/08/05 00:04:20;;;;;;;;;;;;;;;15.59;53.72;97546.56;6223852;28;19925;-65
2022/08/05 00:07:23;;;;;;;;;;;;;;;15.47;54.46;97540.34;6223851;28;19925;-64
2022/08/05 00:10:25;;;;;;;;;;;;;;;15.34;54.91;97538.72;6223750;28;19933;-65
2022/08/05 00:13:32;;;;;;;;;;;;;;;15.29;54.53;97547.03;6223389;28;19926;-65
2022/08/05 00:16:33;;;;;;;;;;;;;;;15.31;54.91;97552.19;6223266;28;19932;-66
2022/08/05 00:19:39;;;;;;;;;;;;;;;15.31;54.90;97553.03;6222977;28;20220;-65
2022/08/05 00:22:42;;;;;;;;;;;;;;;15.32;55.14;97553.91;6223232;28;19925;-65
2022/08/05 00:25:49;;;;;;;;;;;;;;;15.31;54.80;97557.50;6223517;28;20299;-64
2022/08/05 00:28:51;;;;;;;;;;;;;;;15.33;55.54;97555.59;6222148;28;19926;-65
2022/08/05 00:31:57;;;;;;;;;;;;;;;15.29;55.75;97560.28;6223286;28;19932;-64
2022/08/05 00:35:07;;;;;;;;;;;;;;;15.20;56.03;97555.63;6222795;28;19925;-65
2022/08/05 00:38:10;;;;;;;;;;;;;;;15.15;56.25;97561.28;6221861;28;19925;-65
2022/08/05 00:41:12;;;;;;;;;;;;;;;15.08;56.62;97557.38;6222996;28;19925;-65
2022/08/05 00:44:15;;;;;;;;;;;;;;;15.07;56.83;97561.00;6222622;28;20411;-65
2022/08/05 00:47:17;;;;;;;;;;;;;;;15.07;56.55;97561.00;6222897;28;19925;-65
2022/08/05 00:50:21;;;;;;;;;;;;;;;15.07;57.50;97563.63;6223041;28;19922;-66
2022/08/05 00:53:23;;;;;;;;;;;;;;;15.09;56.37;97561.72;6222732;28;19925;-66
2022/08/05 00:56:26;;;;;;;;;;;;;;;15.09;56.42;97564.38;6222557;28;19926;-66
2022/08/05 00:59:32;;;;;;;;;;;;;;;15.11;56.75;97562.44;6222527;28;19925;-65
2022/08/05 01:02:33;;;;;;;;;;;;;;;15.15;56.48;97566.59;6222303;28;19926;-65
2022/08/05 01:05:34;;;;;;;;;;;;;;;15.22;57.35;97570.47;6222471;28;20028;-65
2022/08/05 01:08:35;;;;;;;;;;;;;;;15.26;56.75;97569.31;6221972;28;19925;-66
2022/08/05 01:11:42;;;;;;;;;;;;;;;15.36;57.27;97576.59;6222361;28;19926;-67
2022/08/05 01:14:43;;;;;;;;;;;;;;;15.44;56.09;97564.44;6222064;28;20028;-67
2022/08/05 01:17:48;;;;;;;;;;;;;;;15.53;56.19;97565.56;6222113;28;19929;-66
2022/08/05 01:20:51;;;;;;;;;;;;;;;15.62;55.37;97570.19;6222264;28;19925;-66
2022/08/05 01:24:06;;;;;;;;;;;;;;;15.70;55.04;97569.66;6222060;28;20020;-65
2022/08/05 01:27:25;;;;;;;;;;;;;;;15.77;54.95;97562.09;6221686;28;19931;-65
2022/08/05 01:30:31;;;;;;;;;;;;;;;15.83;55.53;97572.25;6222111;28;19932;-66
2022/08/05 01:33:37;;;;;;;;;;;;;;;15.88;55.27;97570.09;6221873;28;19926;-66
2022/08/05 01:36:42;;;;;;;;;;;;;;;15.98;54.63;97568.44;6221551;28;19932;-65
2022/08/05 01:39:45;;;;;;;;;;;;;;;16.07;54.94;97567.72;6221802;28;19925;-65
2022/08/05 01:42:51;;;;;;;;;;;;;;;16.19;54.82;97570.41;6221954;28;20379;-65
2022/08/05 01:45:56;;;;;;;;;;;;;;;16.32;54.58;97581.81;6221825;28;19929;-66
2022/08/05 01:49:02;;;;;;;;;;;;;;;16.37;54.66;97574.34;6222160;28;19964;-65
2022/08/05 01:52:04;;;;;;;;;;;;;;;16.49;54.68;97578.69;6221637;28;20310;-66
2022/08/05 01:55:11;;;;;;;;;;;;;;;16.58;55.81;97585.94;6220475;28;20302;-66
2022/08/05 01:58:13;;;;;;;;;;;;;;;16.69;54.29;97584.25;6221665;28;19933;-66
2022/08/05 02:01:17;;;;;;;;;;;;;;;16.77;54.18;97587.19;6221535;28;19925;-66
2022/08/05 02:04:21;;;;;;;;;;;;;;;16.84;54.09;97593.69;6221043;28;19925;-66
2022/08/05 02:07:22;;;;;;;;;;;;;;;16.89;54.65;97586.22;6221445;28;20001;-65
2022/08/05 02:10:27;;;;;;;;;;;;;;;16.97;54.24;97591.78;6221444;28;19932;-66
2022/08/05 02:13:40;;;;;;;;;;;;;;;17.09;53.81;97583.78;6221221;28;19929;-66
2022/08/05 02:16:47;;;;;;;;;;;;;;;17.20;53.72;97584.63;6221191;28;19925;-65
2022/08/05 02:19:51;;;;;;;;;;;;;;;17.32;54.32;97590.75;6221247;28;19925;-65
2022/08/05 02:22:59;;;;;;;;;;;;;;;17.37;54.14;97598.38;6219928;28;19961;-66
2022/08/05 02:26:01;;;;;;;;;;;;;;;17.42;54.05;97597.03;6221177;28;20311;-65
2022/08/05 02:29:06;;;;;;;;;;;;;;;17.49;54.16;97600.91;6220945;28;19975;-66
2022/08/05 02:32:12;;;;;;;;;;;;;;;17.59;54.02;97608.13;6221238;28;20307;-66
2022/08/05 02:35:19;;;;;;;;;;;;;;;17.64;53.72;97609.44;6221038;28;19984;-65
2022/08/05 02:38:23;;;;;;;;;;;;;;;17.72;53.70;97609.66;6220934;28;20307;-65
2022/08/05 02:41:25;;;;;;;;;;;;;;;17.82;54.04;97607.09;6221013;28;19932;-65
2022/08/05 02:44:27;;;;;;;;;;;;;;;17.89;53.98;97608.31;6220811;28;20419;-65
2022/08/05 02:47:29;;;;;;;;;;;;;;;17.96;53.87;97608.63;6220696;28;19929;-66
2022/08/05 02:50:30;;;;;;;;;;;;;;;18.04;54.43;97618.66;6220804;28;20406;-65
2022/08/05 02:53:35;;;;;;;;;;;;;;;18.12;53.90;97618.84;6220530;28;19925;-66
2022/08/05 02:56:40;;;;;;;;;;;;;;;18.20;53.69;97623.53;6219221;28;19925;-66
2022/08/05 02:59:48;;;;;;;;;;;;;;;18.28;53.70;97621.91;6223087;28;19929;-66
2022/08/05 03:02:52;;;;;;;;;;;;;;;18.33;53.44;97624.19;6224334;28;19929;-65
2022/08/05 03:05:54;;;;;;;;;;;;;;;18.40;53.36;97626.22;6224791;28;19929;-66
2022/08/05 03:08:58;;;;;;;;;;;;;;;18.52;53.47;97621.66;6225129;28;19925;-66
2022/08/05 03:11:59;;;;;;;;;;;;;;;18.59;53.25;97632.63;6223807;28;20395;-65
2022/08/05 03:15:05;;;;;;;;;;;;;;;18.69;53.11;97630.03;6224816;28;19933;-66
2022/08/05 03:18:11;;;;;;;;;;;;;;;18.76;52.59;97633.88;6224570;28;20386;-65
2022/08/05 03:21:15;;;;;;;;;;;;;;;18.87;52.99;97625.81;6224681;28;19985;-65
2022/08/05 03:24:23;;;;;;;;;;;;;;;18.99;52.93;97623.88;6224712;28;19926;-66
2022/08/05 03:27:27;;;;;;;;;;;;;;;19.11;52.60;97633.50;6224423;28;19925;-65
2022/08/05 03:30:31;;;;;;;;;;;;;;;19.15;52.38;97634.06;6224335;28;19929;-65
2022/08/05 03:33:35;;;;;;;;;;;;;;;19.19;52.20;97636.34;6224138;28;20410;-66
2022/08/05 03:36:40;;;;;;;;;;;;;;;19.32;52.17;97632.59;6222477;28;20366;-65
2022/08/05 03:39:56;;;;;;;;;;;;;;;19.39;51.92;97636.38;6224370;28;19972;-65
2022/08/05 03:42:59;;;;;;;;;;;;;;;19.46;51.70;97627.72;6224126;28;19926;-65
2022/08/05 03:46:05;;;;;;;;;;;;;;;19.58;51.80;97625.75;6224117;28;19926;-65
2022/08/05 03:49:06;;;;;;;;;;;;;;;19.68;51.83;97626.66;6224279;28;19933;-65
2022/08/05 03:52:11;;;;;;;;;;;;;;;19.74;51.51;97620.78;6223707;28;19926;-64
2022/08/05 03:55:16;;;;;;;;;;;;;;;19.82;51.50;97632.59;6224107;28;19929;-65
2022/08/05 03:58:21;;;;;;;;;;;;;;;19.95;51.19;97630.47;6222876;28;19929;-65
2022/08/05 04:01:24;;;;;;;;;;;;;;;20.08;50.80;97628.38;6223632;28;19931;-65
2022/08/05 04:04:28;;;;;;;;;;;;;;;20.24;50.56;97627.84;6223496;28;19931;-66
2022/08/05 04:07:29;;;;;;;;;;;;;;;20.33;50.32;97626.97;6223360;28;19948;-65
2022/08/05 04:10:31;;;;;;;;;;;;;;;20.42;50.44;97634.13;6222459;28;20034;-66
2022/08/05 04:13:38;;;;;;;;;;;;;;;20.49;50.17;97637.06;6223446;28;20410;-66
2022/08/05 04:16:45;;;;;;;;;;;;;;;20.67;49.79;97633.72;6223504;28;19932;-66
2022/08/05 04:19:48;;;;;;;;;;;;;;;20.74;49.63;97642.84;6222585;28;19925;-66
2022/08/05 04:22:54;;;;;;;;;;;;;;;20.80;49.45;97635.06;6223264;28;19925;-65
2022/08/05 04:25:57;;;;;;;;;;;;;;;20.98;49.65;97637.00;6222894;28;19926;-66
2022/08/05 04:29:01;;;;;;;;;;;;;;;21.08;49.28;97633.28;6222967;28;19926;-65
2022/08/05 04:32:05;;;;;;;;;;;;;;;21.24;48.77;97634.50;6223123;28;20072;-66
2022/08/05 04:35:11;;;;;;;;;;;;;;;21.38;48.75;97634.03;6222743;28;20392;-65
2022/08/05 04:38:13;;;;;;;;;;;;;;;21.59;48.20;97631.09;6222865;28;19925;-65
2022/08/05 04:41:14;;;;;;;;;;;;;;;21.68;48.14;97632.91;6222688;28;20029;-65
2022/08/05 04:44:18;;;;;;;;;;;;;;;21.82;48.00;97639.53;6223001;28;20350;-65
2022/08/05 04:47:20;;;;;;;;;;;;;;;22.05;47.61;97628.38;6222650;28;19925;-65
2022/08/05 04:50:23;;;;;;;;;;;;;;;24.20;44.06;97639.16;6222612;28;19971;-65
2022/08/05 04:53:29;;;;;;;;;;;;;;;29.00;37.77;97640.94;6222858;28;19925;-65
2022/08/05 04:56:32;;;;;;;;;;;;;;;33.62;31.82;97645.16;6222210;28;19925;-66
2022/08/05 04:59:36;;;;;;;;;;;;;;;37.43;27.63;97646.78;6222137;28;19925;-66
2022/08/05 05:02:42;;;;;;;;;;;;;;;40.42;22.81;97649.81;6222497;28;19932;-66
2022/08/05 05:05:48;;;;;;;;;;;;;;;42.50;19.62;97646.94;6222376;28;19925;-66
2022/08/05 05:08:49;;;;;;;;;;;;;;;44.29;21.53;97651.47;6222270;28;19925;-65
2022/08/05 05:11:52;;;;;;;;;;;;;;;45.88;20.52;97643.19;6222199;28;19929;-65
2022/08/05 05:14:56;;;;;;;;;;;;;;;47.23;20.07;97649.81;6221937;28;19926;-65
2022/08/05 05:18:01;;;;;;;;;;;;;;;48.54;18.06;97651.06;6222274;28;20303;-66
2022/08/05 05:21:03;;;;;;;;;;;;;;;49.89;16.08;97651.75;6222038;28;19925;-66
2022/08/05 05:24:07;;;;;;;;;;;;;;;50.73;15.37;97649.88;6222076;28;19925;-64
2022/08/05 05:27:08;;;;;;;;;;;;;;;51.79;10.83;97650.38;6221641;28;19931;-66
2022/08/05 05:30:15;;;;;;;;;;;;;;;52.64;13.60;97646.59;6222049;28;19925;-66
2022/08/05 05:33:16;;;;;;;;;;;;;;;53.24;13.45;97648.69;6221753;28;20354;-65
2022/08/05 05:36:20;;;;;;;;;;;;;;;53.52;12.49;97654.25;6221990;28;19925;-65
2022/08/05 05:39:23;;;;;;;;;;;;;;;53.63;12.27;97652.53;6221794;28;20342;-65
2022/08/05 05:42:30;;;;;;;;;;;;;;;53.66;9.94;97649.03;6221183;28;19925;-66
2022/08/05 05:45:37;;;;;;;;;;;;;;;54.36;11.55;97641.81;6221757;28;19925;-65
2022/08/05 05:48:45;;;;;;;;;;;;;;;55.22;10.89;97649.22;6220461;28;19970;-66
2022/08/05 05:51:49;;;;;;;;;;;;;;;55.14;9.48;97640.59;6221310;28;20020;-66
2022/08/05 05:54:50;;;;;;;;;;;;;;;55.22;9.23;97643.56;6221526;28;19922;-65
2022/08/05 05:57:52;;;;;;;;;;;;;;;55.09;9.28;97640.91;6221608;28;19929;-66
2022/08/05 06:00:53;;;;;;;;;;;;;;;55.12;8.29;97634.53;6221582;28;19947;-66
2022/08/05 06:03:59;;;;;;;;;;;;;;;55.00;8.78;97631.88;6221467;28;19926;-64
2022/08/05 06:07:00;;;;;;;;;;;;;;;55.28;8.33;97627.97;6220123;28;19925;-66
2022/08/05 06:10:08;;;;;;;;;;;;;;;55.97;8.37;97637.22;6220106;28;20371;-65
2022/08/05 06:13:12;;;;;;;;;;;;;;;57.09;7.24;97634.63;6221274;28;20253;-65
2022/08/05 06:16:17;;;;;;;;;;;;;;;57.85;7.58;97635.34;6221354;28;20010;-65
2022/08/05 06:19:21;;;;;;;;;;;;;;;57.83;6.65;97634.91;6219701;28;19976;-65
2022/08/05 06:22:27;;;;;;;;;;;;;;;57.14;7.04;97624.97;6221386;28;19925;-65
2022/08/05 06:25:29;;;;;;;;;;;;;;;57.02;6.42;97625.25;6221395;28;19925;-65
2022/08/05 06:28:32;;;;;;;;;;;;;;;56.52;6.56;97625.47;6221188;28;19925;-65
2022/08/05 06:31:36;;;;;;;;;;;;;;;56.68;6.88;97616.78;6221180;28;20288;-66
2022/08/05 06:34:40;;;;;;;;;;;;;;;56.68;6.36;97611.94;6223386;28;20027;-66
2022/08/05 06:37:44;;;;;;;;;;;;;;;56.62;5.92;97619.13;6225464;28;19965;-66
2022/08/05 06:40:46;;;;;;;;;;;;;;;57.90;6.36;97617.94;6225571;28;19925;-66
2022/08/05 06:43:53;;;;;;;;;;;;;;;58.04;5.56;97618.03;6225512;28;19932;-65
2022/08/05 06:46:56;;;;;;;;;;;;;;;56.52;5.72;97604.88;6225154;28;19979;-65
2022/08/05 06:50:03;;;;;;;;;;;;;;;56.35;6.12;97595.78;6225285;28;20015;-65
2022/08/05 06:53:07;;;;;;;;;;;;;;;56.56;6.05;97608.56;6225390;28;19925;-66
2022/08/05 06:56:11;;;;;;;;;;;;;;;57.84;5.64;97602.53;6225284;28;19925;-65
2022/08/05 06:59:15;;;;;;;;;;;;;;;58.56;4.84;97593.22;6225215;28;19929;-65
2022/08/05 07:02:16;;;;;;;;;;;;;;;57.30;5.24;97585.91;6223578;28;19929;-66
2022/08/05 07:05:25;;;;;;;;;;;;;;;57.10;5.38;97584.50;6225366;28;19921;-66
2022/08/05 07:08:31;;;;;;;;;;;;;;;57.58;4.96;97595.88;6225193;28;19926;-65
2022/08/05 07:11:34;;;;;;;;;;;;;;;58.01;5.53;97590.50;6224821;28;19925;-65
2022/08/05 07:18:02;;;;;;;;;;;;;;;60.03;4.67;97586.84;6225126;28;19925;-65
2022/08/05 07:21:04;;;;;;;;;;;;;;;60.64;4.31;97584.56;6224737;28;20388;-65
2022/08/05 07:24:09;;;;;;;;;;;;;;;60.54;3.61;97576.94;6225546;28;20327;-66
2022/08/05 07:27:13;;;;;;;;;;;;;;;60.17;4.28;97569.78;6226403;28;19925;-65
2022/08/05 07:30:17;;;;;;;;;;;;;;;59.84;4.68;97583.22;6224807;28;19925;-65
2022/08/05 07:33:21;;;;;;;;;;;;;;;60.52;4.29;97585.88;6225309;28;20417;-65
2022/08/05 07:36:24;;;;;;;;;;;;;;;59.52;4.86;97569.88;6229307;28;19925;-65
2022/08/05 07:39:28;;;;;;;;;;;;;;;58.53;5.23;97560.00;6224292;28;19929;-65
2022/08/05 07:42:31;;;;;;;;;;;;;;;58.12;5.52;97557.41;6223963;28;19925;-65
2022/08/05 07:45:35;;;;;;;;;;;;;;;54.38;6.53;97544.47;6223626;28;19932;-66
2022/08/05 07:48:38;;;;;;;;;;;;;;;50.25;8.62;97522.44;6223962;28;20256;-66
2022/08/05 07:51:41;;;;;;;;;;;;;;;49.99;8.69;97516.22;6223786;28;19984;-65
2022/08/05 07:54:44;;;;;;;;;;;;;;;49.97;8.69;97518.53;6222621;28;19929;-66
2022/08/05 07:57:49;;;;;;;;;;;;;;;51.93;7.45;97527.34;6223764;28;19948;-66
2022/08/05 08:00:52;;;;;;;;;;;;;;;53.02;7.00;97532.03;6223588;28;19926;-66
2022/08/05 08:03:56;;;;;;;;;;;;;;;52.85;7.28;97531.19;6223479;28;19930;-65
2022/08/05 08:06:59;;;;;;;;;;;;;;;52.13;7.45;97525.53;6223768;28;19926;-65
2022/08/05 08:10:03;;;;;;;;;;;;;;;53.58;7.18;97524.19;6223568;28;19925;-65
2022/08/05 08:13:05;;;;;;;;;;;;;;;55.45;6.39;97530.72;6223279;28;19932;-65
2022/08/05 08:16:08;;;;;;;;;;;;;;;56.87;5.61;97542.28;6223182;28;19925;-65
2022/08/05 08:19:12;;;;;;;;;;;;;;;57.88;5.17;97541.09;6222916;28;19925;-66
2022/08/05 08:22:15;;;;;;;;;;;;;;;58.22;5.46;97533.16;6223285;28;19926;-65
2022/08/05 08:25:18;;;;;;;;;;;;;;;54.43;6.34;97521.63;6223159;28;19925;-66
2022/08/05 08:28:21;;;;;;;;;;;;;;;49.66;8.83;97506.59;6223066;28;19926;-65
2022/08/05 08:31:25;;;;;;;;;;;;;;;47.28;10.16;97495.59;6223034;28;19925;-66
2022/08/05 08:34:28;;;;;;;;;;;;;;;44.52;11.72;97488.81;6222882;28;19930;-65
2022/08/05 08:37:32;;;;;;;;;;;;;;;46.62;10.37;97484.25;6222625;28;20303;-64
2022/08/05 08:40:34;;;;;;;;;;;;;;;49.66;8.70;97494.59;6222810;28;19925;-66
2022/08/05 08:43:39;;;;;;;;;;;;;;;52.78;7.52;97507.72;6222911;28;19931;-66
2022/08/05 08:46:42;;;;;;;;;;;;;;;54.80;6.26;97509.88;6222835;28;19925;-65
2022/08/05 08:49:46;;;;;;;;;;;;;;;52.07;7.61;97501.72;6222574;28;19929;-65
2022/08/05 08:52:51;;;;;;;;;;;;;;;50.05;8.66;97492.47;6222420;28;19925;-66
2022/08/05 08:55:55;;;;;;;;;;;;;;;49.93;8.42;97498.81;6222190;28;20030;-65
2022/08/05 08:58:58;;;;;;;;;;;;;;;50.32;8.34;97491.91;6221878;28;19929;-65
2022/08/05 09:02:05;;;;;;;;;;;;;;;50.92;8.05;97486.00;6222234;28;20391;-65
2022/08/05 09:05:09;;;;;;;;;;;;;;;51.84;7.44;97487.38;6222150;28;19926;-65
2022/08/05 09:08:12;;;;;;;;;;;;;;;52.40;7.54;97493.03;6222292;28;19925;-64
2022/08/05 09:11:15;;;;;;;;;;;;;;;53.28;6.79;97492.09;6222038;28;20311;-65
2022/08/05 09:14:19;;;;;;;;;;;;;;;50.26;8.13;97482.06;6221988;28;20374;-65
2022/08/05 09:17:23;;;;;;;;;;;;;;;48.16;9.05;97479.78;6222048;28;19926;-65
2022/08/05 09:20:26;;;;;;;;;;;;;;;48.99;8.63;97477.47;6222025;28;19926;-64
2022/08/05 09:23:29;;;;;;;;;;;;;;;50.97;7.79;97482.97;6221924;28;19921;-66
2022/08/05 09:26:35;;;;;;;;;;;;;;;51.48;7.54;97472.25;6221800;28;19925;-65
2022/08/05 09:29:47;;;;;;;;;;;;;;;51.45;7.63;97484.16;6220689;28;19925;-64
2022/08/05 09:32:50;;;;;;;;;;;;;;;49.76;8.35;97473.75;6221847;28;20402;-65
2022/08/05 09:35:59;;;;;;;;;;;;;;;49.35;8.64;97469.78;6221735;28;20020;-65
2022/08/05 09:39:04;;;;;;;;;;;;;;;50.82;7.80;97469.63;6221524;28;19925;-64
2022/08/05 09:42:06;;;;;;;;;;;;;;;52.31;7.08;97483.91;6220384;28;19925;-65
2022/08/05 09:45:10;;;;;;;;;;;;;;;52.26;7.22;97476.59;6221343;28;19925;-65
2022/08/05 09:48:25;;;;;;;;;;;;;;;51.97;7.11;97485.34;6221318;28;20307;-65
2022/08/05 09:51:32;;;;;;;;;;;;;;;50.80;7.75;97466.38;6221428;28;20016;-66
2022/08/05 09:54:35;;;;;;;;;;;;;;;51.01;7.52;97477.50;6221550;28;19925;-65
2022/08/05 09:57:43;;;;;;;;;;;;;;;52.14;7.09;97464.59;6220996;28;19925;-66
2022/08/05 10:01:07;;;;;;;;;;;;;;;52.61;7.02;97466.72;6221325;28;19926;-65
2022/08/05 10:04:12;;;;;;;;;;;;;;;49.95;7.86;97453.72;6221363;28;19925;-66
2022/08/05 10:07:15;;;;;;;;;;;;;;;48.65;8.64;97450.50;6221424;28;20283;-66
2022/08/05 10:10:19;;;;;;;;;;;;;;;49.07;8.10;97447.06;6224787;28;20001;-66
2022/08/05 10:13:40;;;;;;;;;;;;;;;50.08;7.79;97452.59;6225935;28;19968;-65
2022/08/05 10:16:44;;;;;;;;;;;;;;;50.83;7.35;97454.47;6223575;28;19925;-65
2022/08/05 10:19:51;;;;;;;;;;;;;;;49.54;8.07;97450.53;6226199;28;19925;-65
2022/08/05 10:22:56;;;;;;;;;;;;;;;49.55;8.12;97446.59;6225746;28;19925;-66
2022/08/05 10:26:03;;;;;;;;;;;;;;;49.35;8.21;97437.03;6226208;28;19925;-64
2022/08/05 10:29:09;;;;;;;;;;;;;;;49.95;7.61;97442.53;6225885;28;19925;-65
2022/08/05 10:32:13;;;;;;;;;;;;;;;49.97;7.82;97437.41;6225758;28;19925;-66
2022/08/05 10:35:17;;;;;;;;;;;;;;;47.92;8.85;97436.47;6225556;28;19925;-65
2022/08/05 10:38:22;;;;;;;;;;;;;;;45.90;9.74;97438.78;6224268;28;20393;-65
2022/08/05 10:41:34;;;;;;;;;;;;;;;43.46;11.13;97431.13;6224711;28;19926;-65
2022/08/05 10:44:37;;;;;;;;;;;;;;;43.11;11.36;97435.16;6225617;28;19925;-66
2022/08/05 10:47:43;;;;;;;;;;;;;;;44.40;10.36;97427.44;6225749;28;19926;-66
2022/08/05 10:51:25;;;;;;;;;;;;;;;45.77;9.44;97436.84;6225517;28;19925;-66
2022/08/05 10:54:47;;;;;;;;;;;;;;;47.06;8.93;97438.00;6174498;28;19934;-65
2022/08/05 10:58:06;;;;;;;;;;;;;;;46.55;9.09;97431.84;6178045;28;19941;-66
2022/08/05 11:01:08;;;;;;;;;;;;;;;45.78;9.42;97421.81;6225089;28;19925;-65
2022/08/05 11:04:10;;;;;;;;;;;;;;;45.89;9.47;97417.66;6222620;28;20032;-67
2022/08/05 11:07:17;;;;;;;;;;;;;;;46.05;9.35;97425.63;6224638;28;19925;-65
2022/08/05 11:10:22;;;;;;;;;;;;;;;45.59;9.82;97418.38;6225303;28;19921;-66
2022/08/05 11:13:39;;;;;;;;;;;;;;;43.09;10.94;97421.63;6224633;28;19925;-66
2022/08/05 11:16:43;;;;;;;;;;;;;;;42.16;11.50;97407.09;6225139;28;19925;-66
2022/08/05 11:19:49;;;;;;;;;;;;;;;43.05;11.31;97412.25;6224230;28;20678;-66
2022/08/05 11:22:54;;;;;;;;;;;;;;;43.21;11.15;97419.25;6224824;28;19925;-66
2022/08/05 11:26:07;;;;;;;;;;;;;;;42.51;11.46;97411.47;6224733;28;19925;-65
2022/08/05 11:29:31;;;;;;;;;;;;;;;42.12;11.56;97414.31;6224614;28;20336;-65
2022/08/05 11:32:33;;;;;;;;;;;;;;;42.14;11.27;97418.44;6224036;28;19925;-65
2022/08/05 11:35:53;;;;;;;;;;;;;;;42.31;10.89;97406.94;6224332;28;19925;-66
2022/08/05 11:38:55;;;;;;;;;;;;;;;42.62;10.79;97412.19;6224417;28;20036;-65
2022/08/05 11:41:59;;;;;;;;;;;;;;;42.87;11.13;97407.50;6223764;28;19933;-66
2022/08/05 11:45:05;;;;;;;;;;;;;;;42.95;11.05;97406.84;6223629;28;19925;-65
2022/08/05 11:48:09;;;;;;;;;;;;;;;42.99;11.18;97405.13;6223275;28;20024;-65
2022/08/05 11:51:10;;;;;;;;;;;;;;;42.41;11.42;97413.50;6222849;28;19926;-65
2022/08/05 11:54:13;;;;;;;;;;;;;;;41.54;11.72;97400.41;6223631;28;19925;-65
2022/08/05 11:57:20;;;;;;;;;;;;;;;41.12;12.07;97402.53;6223779;28;19926;-66
2022/08/05 12:00:25;;;;;;;;;;;;;;;41.10;11.73;97398.41;6223426;28;19925;-65
2022/08/05 12:03:26;;;;;;;;;;;;;;;41.05;12.00;97397.34;6222849;28;19928;-67
2022/08/05 12:06:34;;;;;;;;;;;;;;;40.88;12.29;97391.31;6223707;28;19925;-66
2022/08/05 12:10:00;;;;;;;;;;;;;;;40.77;12.45;97390.53;6223211;28;19925;-66
2022/08/05 12:13:04;;;;;;;;;;;;;;;40.46;12.71;97387.00;6222455;28;19926;-65
2022/08/05 12:16:08;;;;;;;;;;;;;;;39.80;13.20;97387.88;6222970;28;19931;-66
2022/08/05 12:19:13;;;;;;;;;;;;;;;39.25;13.45;97381.97;6222785;28;19925;-66
2022/08/05 12:22:28;;;;;;;;;;;;;;;38.82;14.04;97384.03;6223015;28;19926;-67
2022/08/05 12:25:54;;;;;;;;;;;;;;;38.80;14.39;97374.38;6222690;28;19926;-66
2022/08/05 12:29:24;;;;;;;;;;;;;;;38.84;13.97;97381.84;6222749;28;19925;-66
2022/08/05 12:32:26;;;;;;;;;;;;;;;38.83;14.14;97377.41;6220044;28;20368;-65
2022/08/05 12:35:28;;;;;;;;;;;;;;;38.66;14.03;97374.03;6223054;28;20441;-65
2022/08/05 12:38:41;;;;;;;;;;;;;;;38.00;14.54;97371.72;6222608;28;20207;-66
2022/08/05 12:41:43;;;;;;;;;;;;;;;36.66;15.50;97367.78;6222646;28;19932;-65
2022/08/05 12:44:59;;;;;;;;;;;;;;;36.53;15.67;97369.84;6222764;28;19921;-66
2022/08/05 12:48:13;;;;;;;;;;;;;;;36.73;15.18;97369.28;6222573;28;20500;-66
2022/08/05 12:51:20;;;;;;;;;;;;;;;37.01;15.21;97359.22;6222352;28;19925;-66
2022/08/05 12:54:26;;;;;;;;;;;;;;;36.72;15.19;97361.28;6222842;28;19925;-66
2022/08/05 12:57:34;;;;;;;;;;;;;;;35.86;16.58;97367.16;6222713;28;20712;-65
2022/08/05 13:00:41;;;;;;;;;;;;;;;35.11;16.72;97352.69;6222473;28;20454;-65
2022/08/05 13:03:45;;;;;;;;;;;;;;;34.91;16.76;97360.50;6222083;28;20345;-66
2022/08/05 13:06:49;;;;;;;;;;;;;;;34.78;17.20;97354.22;6222108;28;19926;-66
2022/08/05 13:09:57;;;;;;;;;;;;;;;34.52;17.39;97357.47;6222079;28;20315;-65
2022/08/05 13:12:58;;;;;;;;;;;;;;;33.91;17.91;97357.69;6221917;28;20411;-67
2022/08/05 13:16:00;;;;;;;;;;;;;;;33.51;18.29;97355.63;6222022;28;20343;-66
2022/08/05 13:19:04;;;;;;;;;;;;;;;33.28;18.52;97355.56;6221888;28;19948;-65
2022/08/05 13:22:07;;;;;;;;;;;;;;;32.77;18.92;97348.69;6221986;28;19933;-66
2022/08/05 13:25:13;;;;;;;;;;;;;;;32.38;18.98;97357.06;6221965;28;19925;-66
2022/08/05 13:28:15;;;;;;;;;;;;;;;32.12;19.56;97347.31;6221990;28;19932;-65
2022/08/05 13:31:21;;;;;;;;;;;;;;;31.94;19.89;97358.19;6221898;28;19926;-65
2022/08/05 13:34:24;;;;;;;;;;;;;;;31.49;20.26;97353.72;6221494;28;19925;-65
2022/08/05 13:37:28;;;;;;;;;;;;;;;31.06;20.46;97364.44;6220599;28;19926;-66
2022/08/05 13:40:31;;;;;;;;;;;;;;;30.79;20.78;97359.13;6222352;28;19933;-68
2022/08/05 13:43:34;;;;;;;;;;;;;;;30.54;20.74;97355.44;6221769;28;19933;-66
2022/08/05 13:46:41;;;;;;;;;;;;;;;30.20;21.22;97354.66;6221673;28;19925;-66
2022/08/05 13:49:46;;;;;;;;;;;;;;;30.00;21.47;97365.56;6221316;28;19959;-66
2022/08/05 13:52:54;;;;;;;;;;;;;;;30.03;21.26;97358.88;6221353;28;19926;-66
2022/08/05 13:56:01;;;;;;;;;;;;;;;30.06;21.19;97362.00;6220926;28;19928;-67
2022/08/05 13:59:07;;;;;;;;;;;;;;;30.19;21.05;97359.28;6221019;28;19938;-66
2022/08/05 14:02:09;;;;;;;;;;;;;;;30.11;20.93;97364.09;6221039;28;19921;-65
2022/08/05 14:05:16;;;;;;;;;;;;;;;29.94;21.24;97356.38;6221131;28;19941;-65
2022/08/05 14:08:19;;;;;;;;;;;;;;;29.82;21.49;97366.22;6220796;28;19980;-69
2022/08/05 14:11:20;;;;;;;;;;;;;;;29.87;21.51;97363.72;6220879;28;19948;-67
2022/08/05 14:14:28;;;;;;;;;;;;;;;29.83;21.70;97365.16;6221013;28;19926;-66
2022/08/05 14:17:32;;;;;;;;;;;;;;;29.80;21.62;97365.59;6220956;28;20395;-66
2022/08/05 14:20:37;;;;;;;;;;;;;;;29.57;22.03;97370.56;6221019;28;19921;-65
2022/08/05 14:23:47;;;;;;;;;;;;;;;29.35;22.14;97375.34;6221114;28;20027;-65
2022/08/05 14:26:51;;;;;;;;;;;;;;;29.26;22.32;97369.28;6221218;28;19933;-66
2022/08/05 14:29:57;;;;;;;;;;;;;;;29.13;22.18;97369.25;6221040;28;19932;-65
2022/08/05 14:32:58;;;;;;;;;;;;;;;28.93;22.56;97375.44;6220796;28;20315;-66
2022/08/05 14:36:01;;;;;;;;;;;;;;;28.64;22.76;97371.97;6220837;28;19925;-66
2022/08/05 14:39:07;;;;;;;;;;;;;;;28.36;23.19;97361.19;6220685;28;19925;-65
2022/08/05 14:42:08;;;;;;;;;;;;;;;28.13;23.38;97374.19;6220255;28;20307;-65
2022/08/05 14:45:13;;;;;;;;;;;;;;;28.08;23.40;97376.63;6220267;28;19932;-65
2022/08/05 14:48:20;;;;;;;;;;;;;;;28.09;23.30;97368.34;6220383;28;19925;-65
2022/08/05 14:51:23;;;;;;;;;;;;;;;28.09;23.25;97373.75;6220624;28;19948;-66
2022/08/05 14:54:25;;;;;;;;;;;;;;;28.06;23.28;97368.72;6220887;28;20024;-66
2022/08/05 14:57:31;;;;;;;;;;;;;;;28.03;23.21;97374.53;6223280;28;19925;-66
2022/08/05 15:00:35;;;;;;;;;;;;;;;27.91;23.57;97382.38;6224902;28;19930;-66
2022/08/05 15:03:36;;;;;;;;;;;;;;;27.80;23.26;97373.94;6224803;28;19925;-66
2022/08/05 15:06:40;;;;;;;;;;;;;;;27.70;23.67;97374.25;6224427;28;19929;-67
2022/08/05 15:09:44;;;;;;;;;;;;;;;27.57;23.88;97374.97;6224478;28;19932;-66
2022/08/05 15:12:45;;;;;;;;;;;;;;;27.47;23.98;97385.28;6224870;28;19925;-65
2022/08/05 15:15:50;;;;;;;;;;;;;;;27.34;24.55;97374.34;6223572;28;19979;-66
2022/08/05 15:18:54;;;;;;;;;;;;;;;27.19;24.80;97375.25;6223502;28;19926;-66
2022/08/05 15:21:59;;;;;;;;;;;;;;;27.02;24.72;97380.03;6224275;28;19980;-65
2022/08/05 15:25:02;;;;;;;;;;;;;;;26.90;25.31;97378.03;6224765;28;20423;-66
2022/08/05 15:28:04;;;;;;;;;;;;;;;26.71;25.50;97377.59;6224049;28;19926;-66
2022/08/05 15:31:05;;;;;;;;;;;;;;;26.58;25.49;97382.81;6224181;28;19930;-65
2022/08/05 15:34:08;;;;;;;;;;;;;;;26.40;25.80;97378.63;6224089;28;19929;-65
2022/08/05 15:37:11;;;;;;;;;;;;;;;26.23;25.83;97379.84;6224066;28;19929;-66
2022/08/05 15:40:18;;;;;;;;;;;;;;;26.04;26.42;97386.59;6224092;28;19976;-66
2022/08/05 15:43:24;;;;;;;;;;;;;;;25.86;26.85;97386.97;6223815;28;19925;-66
2022/08/05 15:46:25;;;;;;;;;;;;;;;25.67;26.44;97384.75;6224283;28;19921;-66
2022/08/05 15:49:26;;;;;;;;;;;;;;;25.50;26.90;97390.28;6223847;28;20285;-66
2022/08/05 15:52:27;;;;;;;;;;;;;;;25.36;27.05;97393.75;6223959;28;19932;-66
2022/08/05 15:55:28;;;;;;;;;;;;;;;25.22;27.28;97394.53;6223540;28;19933;-66
2022/08/05 15:58:29;;;;;;;;;;;;;;;25.09;27.49;97390.56;6223473;28;20023;-66
2022/08/05 16:01:35;;;;;;;;;;;;;;;25.00;27.33;97401.56;6222300;28;19925;-66
2022/08/05 16:04:39;;;;;;;;;;;;;;;24.88;27.75;97401.09;6223390;28;19925;-67
2022/08/05 16:07:40;;;;;;;;;;;;;;;24.77;28.15;97396.13;6223373;28;19974;-65
2022/08/05 16:10:43;;;;;;;;;;;;;;;24.62;28.19;97399.56;6223351;28;20027;-66